createdAt,value
2023-05-15T00:01:09.239Z,23.23
2023-05-15T00:03:37.626Z,22.10
2023-05-15T00:06:07.022Z,20.93
2023-05-15T00:08:37.015Z,22.40
2023-05-15T00:11:05.103Z,22.20
2023-05-15T00:13:34.623Z,21.23
2023-05-15T00:16:02.877Z,21.50
2023-05-15T00:18:31.185Z,21.07
2023-05-15T00:20:59.469Z,22.97
2023-05-15T00:23:27.900Z,22.27
2023-05-15T00:25:57.587Z,22.00
2023-05-15T00:28:26.508Z,22.40
2023-05-15T00:30:54.598Z,23.07
2023-05-15T00:33:22.664Z,23.63
2023-05-15T00:35:51.101Z,24.17
2023-05-15T00:38:19.200Z,26.07
2023-05-15T00:40:47.763Z,22.77
2023-05-15T00:43:19.456Z,24.93
2023-05-15T00:45:48.700Z,24.57
2023-05-15T00:48:17.733Z,24.13
2023-05-15T00:50:47.151Z,24.87
2023-05-15T00:53:17.443Z,24.63
2023-05-15T00:55:48.540Z,25.37
2023-05-15T00:58:19.674Z,26.23
2023-05-15T01:00:49.889Z,25.23
2023-05-15T01:03:18.207Z,23.97
2023-05-15T01:05:46.503Z,24.13
2023-05-15T01:08:20.457Z,24.63
2023-05-15T01:10:51.467Z,23.43
2023-05-15T01:13:21.585Z,22.80
2023-05-15T01:15:50.670Z,24.83
2023-05-15T01:18:19.180Z,24.57
2023-05-15T01:21:03.193Z,24.33
2023-05-15T01:23:46.494Z,24.13
2023-05-15T01:26:48.526Z,24.63
2023-05-15T01:29:25.566Z,24.73
2023-05-15T01:31:59.995Z,24.20
2023-05-15T01:34:35.493Z,23.87
2023-05-15T01:37:05.474Z,25.30
2023-05-15T01:39:37.117Z,25.53
2023-05-15T01:42:09.197Z,26.03
2023-05-15T01:44:44.981Z,25.60
2023-05-15T01:47:16.616Z,27.87
2023-05-15T01:49:46.903Z,26.83
2023-05-15T01:52:19.160Z,27.37
2023-05-15T01:54:49.347Z,29.00
2023-05-15T01:57:20.245Z,29.20
2023-05-15T01:59:51.370Z,29.17
2023-05-15T02:02:20.955Z,30.23
2023-05-15T02:04:50.877Z,30.73
2023-05-15T02:07:19.241Z,31.03
2023-05-15T02:09:48.398Z,30.33
2023-05-15T02:12:16.903Z,31.53
2023-05-15T02:14:46.315Z,32.63
2023-05-15T02:17:16.409Z,31.83
2023-05-15T02:19:44.558Z,32.87
2023-05-15T02:22:13.568Z,29.90
2023-05-15T02:24:41.665Z,29.90
2023-05-15T02:27:18.786Z,28.33
2023-05-15T02:30:03.112Z,28.47
2023-05-15T02:32:41.686Z,29.20
2023-05-15T02:35:19.332Z,28.77
2023-05-15T02:37:50.840Z,29.63
2023-05-15T02:40:21.420Z,29.33
2023-05-15T02:42:50.692Z,30.77
2023-05-15T02:45:18.811Z,29.83
2023-05-15T02:47:50.650Z,30.13
2023-05-15T02:50:19.823Z,28.47
2023-05-15T02:52:48.132Z,31.03
2023-05-15T02:55:16.402Z,29.67
2023-05-15T02:57:44.469Z,29.07
2023-05-15T03:00:14.594Z,28.93
2023-05-15T03:02:42.720Z,31.60
2023-05-15T03:05:12.454Z,29.27
2023-05-15T03:07:41.394Z,30.90
2023-05-15T03:10:10.196Z,30.70
2023-05-15T03:12:38.383Z,30.70
2023-05-15T03:15:25.603Z,31.63
2023-05-15T03:17:54.035Z,30.53
2023-05-15T03:20:23.658Z,31.40
2023-05-15T03:22:54.219Z,31.93
2023-05-15T03:25:27.149Z,30.67
2023-05-15T03:27:56.869Z,31.57
2023-05-15T03:30:25.135Z,31.03
2023-05-15T03:32:54.050Z,31.07
2023-05-15T03:35:23.873Z,34.07
2023-05-15T03:37:52.084Z,32.77
2023-05-15T03:40:20.415Z,32.33
2023-05-15T03:42:48.437Z,32.70
2023-05-15T03:45:16.942Z,32.93
2023-05-15T03:47:45.099Z,32.67
2023-05-15T03:50:13.814Z,32.60
2023-05-15T03:52:43.429Z,32.33
2023-05-15T03:55:11.652Z,33.50
2023-05-15T03:57:41.623Z,32.57
2023-05-15T04:00:11.167Z,33.07
2023-05-15T04:02:40.515Z,34.27
2023-05-15T04:05:09.875Z,31.77
2023-05-15T04:07:39.268Z,31.40
2023-05-15T04:10:09.798Z,32.03
2023-05-15T04:12:38.328Z,31.87
2023-05-15T04:15:17.205Z,31.90
2023-05-15T04:17:45.771Z,31.17
2023-05-15T04:20:15.045Z,28.33
2023-05-15T04:22:44.388Z,30.70
2023-05-15T04:25:15.183Z,29.70
2023-05-15T04:27:44.669Z,29.00
2023-05-15T04:30:14.161Z,27.13
2023-05-15T04:32:43.075Z,26.50
2023-05-15T04:35:13.727Z,28.00
2023-05-15T04:37:43.533Z,29.27
2023-05-15T04:40:15.318Z,27.90
2023-05-15T04:42:44.178Z,29.40
2023-05-15T04:45:13.703Z,30.10
2023-05-15T04:47:42.351Z,27.87
2023-05-15T04:50:10.953Z,27.97
2023-05-15T04:52:39.324Z,26.70
2023-05-15T04:55:08.860Z,28.57
2023-05-15T04:57:38.730Z,27.27
2023-05-15T05:00:13.185Z,26.47
2023-05-15T05:02:41.711Z,28.00
2023-05-15T05:05:10.327Z,26.97
2023-05-15T05:07:38.337Z,28.20
2023-05-15T05:10:07.740Z,28.43
2023-05-15T05:12:35.791Z,28.40
2023-05-15T05:15:06.025Z,28.50
2023-05-15T05:17:34.104Z,29.10
2023-05-15T05:20:02.284Z,31.20
2023-05-15T05:22:31.944Z,31.55
2023-05-15T05:25:00.616Z,32.70
2023-05-15T05:27:28.952Z,29.35
2023-05-15T05:29:57.595Z,28.42
2023-05-15T05:32:27.532Z,25.37
2023-05-15T05:34:56.480Z,25.08
2023-05-15T05:37:24.847Z,24.85
2023-05-15T05:39:53.051Z,28.35
2023-05-15T05:42:21.150Z,26.85
2023-05-15T05:44:49.192Z,24.98
2023-05-15T05:47:17.214Z,26.23
2023-05-15T05:49:48.245Z,27.38
2023-05-15T05:52:18.604Z,24.85
2023-05-15T05:54:48.224Z,25.83
2023-05-15T05:57:16.729Z,25.60
2023-05-15T05:59:46.092Z,23.98
2023-05-15T06:02:14.721Z,25.10
2023-05-15T06:04:42.922Z,25.73
2023-05-15T06:07:13.186Z,24.65
2023-05-15T06:09:41.644Z,24.77
2023-05-15T06:12:10.486Z,22.75
2023-05-15T06:14:38.615Z,22.50
2023-05-15T06:17:08.610Z,23.33
2023-05-15T06:19:39.756Z,23.58
2023-05-15T06:22:08.755Z,25.85
2023-05-15T06:24:38.406Z,24.70
2023-05-15T06:27:07.325Z,24.23
2023-05-15T06:29:35.821Z,26.67
2023-05-15T06:32:04.219Z,26.70
2023-05-15T06:34:32.400Z,26.20
2023-05-15T06:37:00.935Z,26.50
2023-05-15T06:39:29.284Z,26.90
2023-05-15T06:42:01.802Z,29.50
2023-05-15T06:44:31.123Z,26.52
2023-05-15T06:46:59.594Z,25.65
2023-05-15T06:49:29.139Z,26.90
2023-05-15T06:51:57.606Z,24.83
2023-05-15T06:54:25.683Z,22.80
2023-05-15T06:56:54.064Z,21.35
2023-05-15T06:59:24.800Z,21.38
2023-05-15T07:01:53.408Z,22.45
2023-05-15T07:04:21.695Z,35.00
2023-05-15T07:06:50.674Z,22.00
2023-05-15T07:09:21.299Z,22.00
2023-05-15T07:11:49.438Z,22.60
2023-05-15T07:14:17.679Z,20.48
2023-05-15T07:16:48.345Z,21.73
2023-05-15T07:19:21.303Z,21.77
2023-05-15T07:21:50.047Z,22.52
2023-05-15T07:24:40.311Z,24.08
2023-05-15T07:27:08.953Z,22.73
2023-05-15T07:29:37.351Z,22.17
2023-05-15T07:32:07.765Z,23.10
2023-05-15T07:34:36.495Z,23.42
2023-05-15T07:37:04.946Z,22.10
2023-05-15T07:39:34.108Z,21.58
2023-05-15T07:42:02.384Z,22.88
2023-05-15T07:44:30.475Z,21.30
2023-05-15T07:47:00.871Z,22.63
2023-05-15T07:49:32.979Z,21.23
2023-05-15T07:52:02.383Z,20.17
2023-05-15T07:54:32.202Z,19.05
2023-05-15T07:57:00.331Z,16.85
2023-05-15T07:59:31.342Z,17.27
2023-05-15T08:01:59.810Z,18.23
2023-05-15T08:04:28.577Z,16.13
2023-05-15T08:06:58.506Z,16.95
2023-05-15T08:09:26.782Z,16.25
2023-05-15T08:11:57.533Z,16.52
2023-05-15T08:14:26.015Z,16.58
2023-05-15T08:16:54.297Z,15.88
2023-05-15T08:19:23.988Z,17.20
2023-05-15T08:21:52.609Z,17.02
2023-05-15T08:24:22.350Z,16.38
2023-05-15T08:26:50.760Z,16.15
2023-05-15T08:29:18.936Z,16.05
2023-05-15T08:31:47.173Z,17.48
2023-05-15T08:34:15.386Z,16.85
2023-05-15T08:36:43.531Z,17.65
2023-05-15T08:39:11.737Z,18.98
2023-05-15T08:41:49.250Z,17.08
2023-05-15T08:44:17.655Z,20.10
2023-05-15T08:46:46.462Z,19.13
2023-05-15T08:49:21.569Z,18.73
2023-05-15T08:51:49.653Z,17.85
2023-05-15T08:54:17.916Z,18.70
2023-05-15T08:56:47.941Z,18.10
2023-05-15T08:59:16.497Z,19.38
2023-05-15T09:01:46.319Z,17.95
2023-05-15T09:04:14.798Z,18.35
2023-05-15T09:06:45.143Z,18.88
2023-05-15T09:09:14.331Z,21.25
2023-05-15T09:11:45.687Z,26.27
2023-05-15T09:14:15.394Z,24.65
2023-05-15T09:16:43.618Z,20.90
2023-05-15T09:19:13.802Z,18.33
2023-05-15T09:21:41.999Z,18.67
2023-05-15T09:24:21.821Z,18.92
2023-05-15T09:27:03.258Z,17.75
2023-05-15T09:29:33.993Z,18.98
2023-05-15T09:32:04.512Z,19.75
2023-05-15T09:34:34.374Z,21.67
2023-05-15T09:37:05.396Z,19.60
2023-05-15T09:39:34.020Z,19.73
2023-05-15T09:42:10.332Z,20.05
2023-05-15T09:44:43.391Z,19.80
2023-05-15T09:47:16.985Z,20.92
2023-05-15T09:49:46.984Z,22.60
2023-05-15T09:52:17.535Z,21.45
2023-05-15T09:54:49.625Z,21.20
2023-05-15T09:57:23.520Z,21.30
2023-05-15T09:59:53.632Z,22.48
2023-05-15T10:02:25.712Z,21.73
2023-05-15T10:04:57.684Z,21.48
2023-05-15T10:07:30.181Z,20.85
2023-05-15T10:09:59.016Z,23.17
2023-05-15T10:12:28.060Z,22.67
2023-05-15T10:14:58.798Z,23.77
2023-05-15T10:17:29.218Z,24.90
2023-05-15T10:20:00.260Z,22.55
2023-05-15T10:22:32.292Z,23.63
2023-05-15T10:25:04.622Z,24.80
2023-05-15T10:27:36.287Z,23.23
2023-05-15T10:30:09.049Z,24.58
2023-05-15T10:32:38.003Z,21.92
2023-05-15T10:35:07.116Z,20.73
2023-05-15T10:37:36.958Z,21.85
2023-05-15T10:40:09.674Z,20.75
2023-05-15T10:42:38.433Z,21.30
2023-05-15T10:45:10.169Z,19.85
2023-05-15T10:47:39.445Z,20.73
2023-05-15T10:50:08.838Z,20.60
2023-05-15T10:52:38.805Z,20.10
2023-05-15T10:55:11.723Z,20.52
2023-05-15T10:57:40.742Z,20.83
2023-05-15T11:00:26.414Z,21.05
2023-05-15T11:02:57.516Z,21.50
2023-05-15T11:05:26.563Z,20.98
2023-05-15T11:08:28.552Z,21.30
2023-05-15T11:10:57.392Z,20.63
2023-05-15T11:13:27.063Z,20.63
2023-05-15T11:15:57.411Z,19.55
2023-05-15T11:18:26.873Z,18.67
2023-05-15T11:21:11.286Z,19.50
2023-05-15T11:23:42.053Z,19.42
2023-05-15T11:26:11.172Z,19.05
2023-05-15T11:28:44.980Z,19.90
2023-05-15T11:31:15.630Z,19.38
2023-05-15T11:33:43.828Z,20.38
2023-05-15T11:36:15.926Z,18.85
2023-05-15T11:38:44.790Z,19.27
2023-05-15T11:41:21.987Z,20.17
2023-05-15T11:43:51.572Z,19.65
2023-05-15T11:46:22.943Z,19.35
2023-05-15T11:48:51.979Z,20.38
2023-05-15T11:51:22.564Z,20.52
2023-05-15T11:53:51.778Z,22.10
2023-05-15T11:56:21.004Z,19.77
2023-05-15T11:58:53.067Z,19.88
2023-05-15T12:01:22.842Z,19.60
2023-05-15T12:03:51.594Z,20.27
2023-05-15T12:06:20.156Z,21.35
2023-05-15T12:08:54.211Z,19.30
2023-05-15T12:11:24.520Z,20.17
2023-05-15T12:13:53.192Z,19.40
2023-05-15T12:16:27.383Z,20.80
2023-05-15T12:18:57.850Z,22.08
2023-05-15T12:21:28.276Z,20.45
2023-05-15T12:24:07.050Z,22.35
2023-05-15T12:26:37.164Z,23.85
2023-05-15T12:29:05.932Z,22.52
2023-05-15T12:31:37.308Z,21.92
2023-05-15T12:34:05.977Z,22.35
2023-05-15T12:36:34.234Z,25.15
2023-05-15T12:39:07.953Z,22.50
2023-05-15T12:41:38.504Z,23.80
2023-05-15T12:44:07.240Z,23.75
2023-05-15T12:46:36.748Z,22.83
2023-05-15T12:49:04.829Z,23.42
2023-05-15T12:51:32.916Z,23.88
2023-05-15T12:54:01.330Z,22.90
2023-05-15T12:56:31.197Z,23.45
2023-05-15T12:58:59.539Z,23.17
2023-05-15T13:01:27.843Z,21.75
2023-05-15T13:03:58.728Z,23.55
2023-05-15T13:06:38.397Z,22.35
2023-05-15T13:09:14.332Z,22.40
2023-05-15T13:11:44.964Z,21.88
2023-05-15T13:14:17.703Z,23.25
2023-05-15T13:16:47.559Z,22.40
2023-05-15T13:19:17.543Z,23.20
2023-05-15T13:21:46.318Z,22.90
2023-05-15T13:24:14.574Z,24.55
2023-05-15T13:26:42.849Z,23.23
2023-05-15T13:29:11.105Z,23.00
2023-05-15T13:31:39.509Z,21.67
2023-05-15T13:34:07.683Z,20.80
2023-05-15T13:36:37.919Z,23.35
2023-05-15T13:39:06.592Z,23.75
2023-05-15T13:41:34.741Z,23.92
2023-05-15T13:44:02.935Z,24.30
2023-05-15T13:46:31.535Z,23.83
2023-05-15T13:49:00.354Z,24.27
2023-05-15T13:51:28.736Z,23.83
2023-05-15T13:53:58.133Z,24.20
2023-05-15T13:56:26.391Z,24.17
2023-05-15T13:58:55.042Z,24.73
2023-05-15T14:01:23.213Z,25.40
2023-05-15T14:03:51.505Z,25.63
2023-05-15T14:06:19.678Z,24.77
2023-05-15T14:08:47.888Z,25.42
2023-05-15T14:11:17.559Z,23.48
2023-05-15T14:13:45.795Z,24.30
2023-05-15T14:16:14.182Z,25.77
2023-05-15T14:18:42.351Z,23.60
2023-05-15T14:21:11.429Z,25.40
2023-05-15T14:23:39.554Z,25.67
2023-05-15T14:26:07.980Z,24.90
2023-05-15T14:28:37.842Z,25.50
2023-05-15T14:31:06.002Z,25.23
2023-05-15T14:33:34.242Z,25.55
2023-05-15T14:36:04.589Z,26.15
2023-05-15T14:38:33.022Z,26.85
2023-05-15T14:41:01.358Z,24.50
2023-05-15T14:43:30.184Z,26.33
2023-05-15T14:45:59.742Z,28.15
2023-05-15T14:48:30.036Z,26.15
2023-05-15T14:50:58.241Z,25.85
2023-05-15T14:53:26.285Z,26.98
2023-05-15T14:55:56.251Z,26.67
2023-05-15T14:58:24.372Z,26.35
2023-05-15T15:00:52.748Z,27.70
2023-05-15T15:03:22.595Z,25.67
2023-05-15T15:05:51.995Z,26.70
2023-05-15T15:08:20.734Z,27.27
2023-05-15T15:10:48.722Z,25.95
2023-05-15T15:13:17.350Z,25.70
2023-05-15T15:15:45.383Z,26.27
2023-05-15T15:18:13.475Z,27.02
2023-05-15T15:20:44.570Z,26.73
2023-05-15T15:23:13.644Z,25.05
2023-05-15T15:25:42.226Z,27.15
2023-05-15T15:28:10.607Z,27.02
2023-05-15T15:30:39.622Z,27.30
2023-05-15T15:33:07.821Z,27.20
2023-05-15T15:35:36.146Z,26.60
2023-05-15T15:38:05.694Z,27.90
2023-05-15T15:40:33.688Z,27.77
2023-05-15T15:43:01.870Z,26.52
2023-05-15T15:45:30.265Z,27.50
2023-05-15T15:47:58.994Z,28.52
2023-05-15T15:50:27.268Z,25.98
2023-05-15T15:52:55.852Z,26.98
2023-05-15T15:55:26.175Z,28.35
2023-05-15T15:57:54.659Z,27.42
2023-05-15T16:00:23.185Z,27.33
2023-05-15T16:02:51.580Z,27.65
2023-05-15T16:05:19.932Z,28.02
2023-05-15T16:07:48.992Z,27.42
2023-05-15T16:10:17.474Z,27.88
2023-05-15T16:12:47.488Z,28.55
2023-05-15T16:15:23.070Z,27.80
2023-05-15T16:17:55.025Z,27.35
2023-05-15T16:20:24.683Z,28.95
2023-05-15T16:22:53.746Z,27.60
2023-05-15T16:25:22.423Z,29.13
2023-05-15T16:27:52.062Z,27.95
2023-05-15T16:30:20.345Z,28.23
2023-05-15T16:32:48.903Z,28.95
2023-05-15T16:35:17.330Z,27.17
2023-05-15T16:37:46.950Z,28.17
2023-05-15T16:40:16.091Z,28.02
2023-05-15T16:42:44.781Z,28.08
2023-05-15T16:45:15.075Z,27.20
2023-05-15T16:47:43.153Z,27.92
2023-05-15T16:50:11.873Z,26.60
2023-05-15T16:52:45.566Z,27.73
2023-05-15T16:55:15.529Z,27.65
2023-05-15T16:57:45.336Z,28.92
2023-05-15T17:00:17.140Z,29.52
2023-05-15T17:02:45.912Z,27.95
2023-05-15T17:05:15.404Z,26.90
2023-05-15T17:07:45.124Z,28.05
2023-05-15T17:10:14.335Z,28.23
2023-05-15T17:12:42.542Z,27.98
2023-05-15T17:15:11.318Z,28.67
2023-05-15T17:17:40.970Z,30.25
2023-05-15T17:20:10.669Z,30.67
2023-05-15T17:22:38.981Z,28.80
2023-05-15T17:25:08.896Z,28.52
2023-05-15T17:27:39.915Z,30.00
2023-05-15T17:30:09.639Z,28.58
2023-05-15T17:32:39.123Z,29.88
2023-05-15T17:35:11.518Z,28.65
2023-05-15T17:37:40.132Z,30.45
2023-05-15T17:40:10.228Z,30.65
2023-05-15T17:42:39.350Z,28.98
2023-05-15T17:45:08.943Z,29.27
2023-05-15T17:47:37.304Z,31.95
2023-05-15T17:50:09.394Z,30.02
2023-05-15T17:52:38.862Z,28.63
2023-05-15T17:55:08.507Z,32.05
2023-05-15T17:57:36.673Z,30.00
2023-05-15T18:00:07.150Z,31.55
2023-05-15T18:02:35.523Z,32.05
2023-05-15T18:05:04.042Z,31.48
2023-05-15T18:07:33.866Z,32.67
2023-05-15T18:10:02.332Z,34.40
2023-05-15T18:12:33.233Z,32.72
2023-05-15T18:15:01.441Z,42.70
2023-05-15T18:17:30.301Z,36.47
2023-05-15T18:19:58.735Z,47.53
2023-05-15T18:22:28.048Z,51.60
2023-05-15T18:24:59.096Z,37.85
2023-05-15T18:27:33.009Z,33.90
2023-05-15T18:30:05.152Z,33.70
2023-05-15T18:32:34.606Z,30.80
2023-05-15T18:35:04.040Z,31.95
2023-05-15T18:37:32.266Z,30.48
2023-05-15T18:40:02.067Z,29.95
2023-05-15T18:42:30.621Z,31.02
2023-05-15T18:45:04.889Z,29.90
2023-05-15T18:47:33.653Z,31.92
2023-05-15T18:50:01.992Z,31.33
2023-05-15T18:52:30.092Z,32.20
2023-05-15T18:54:58.568Z,31.92
2023-05-15T18:57:28.410Z,31.08
2023-05-15T18:59:56.735Z,32.75
2023-05-15T19:02:26.268Z,33.28
2023-05-15T19:04:54.864Z,33.00
2023-05-15T19:07:23.079Z,32.83
2023-05-15T19:09:51.969Z,33.47
2023-05-15T19:12:20.761Z,32.92
2023-05-15T19:14:50.836Z,33.47
2023-05-15T19:17:20.414Z,34.45
2023-05-15T19:19:48.912Z,36.95
2023-05-15T19:22:17.790Z,34.42
2023-05-15T19:24:47.003Z,34.17
2023-05-15T19:27:15.650Z,34.22
2023-05-15T19:29:45.447Z,34.45
2023-05-15T19:32:15.387Z,33.08
2023-05-15T19:34:43.786Z,34.15
2023-05-15T19:37:12.555Z,34.05
2023-05-15T19:39:41.654Z,33.53
2023-05-15T19:42:10.341Z,34.50
2023-05-15T19:44:38.996Z,33.85
2023-05-15T19:47:09.028Z,33.35
2023-05-15T19:49:38.715Z,33.00
2023-05-15T19:52:07.455Z,34.92
2023-05-15T19:54:35.784Z,34.67
2023-05-15T19:57:04.082Z,31.95
2023-05-15T19:59:32.380Z,37.28
2023-05-15T20:02:06.215Z,36.50
2023-05-15T20:04:35.348Z,39.58
2023-05-15T20:07:05.306Z,37.42
2023-05-15T20:09:33.991Z,37.60
2023-05-15T20:12:03.528Z,38.27
2023-05-15T20:14:34.252Z,35.72
2023-05-15T20:17:03.713Z,38.85
2023-05-15T20:19:32.000Z,40.30
2023-05-15T20:22:00.285Z,43.10
2023-05-15T20:24:30.365Z,40.70
2023-05-15T20:26:58.646Z,44.33
2023-05-15T20:29:26.931Z,41.60
2023-05-15T20:31:55.596Z,41.73
2023-05-15T20:34:24.237Z,43.95
2023-05-15T20:36:52.800Z,40.38
2023-05-15T20:39:21.439Z,40.23
2023-05-15T20:41:51.090Z,37.70
2023-05-15T20:44:19.201Z,35.70
2023-05-15T20:46:47.408Z,34.10
2023-05-15T20:49:15.745Z,31.83
2023-05-15T20:51:44.682Z,33.03
2023-05-15T20:54:12.960Z,34.85
2023-05-15T20:56:41.112Z,33.57
2023-05-15T20:59:11.082Z,35.33
2023-05-15T21:01:39.367Z,34.08
2023-05-15T21:04:08.079Z,36.80
2023-05-15T21:06:37.106Z,38.35
2023-05-15T21:09:05.458Z,37.03
2023-05-15T21:11:33.597Z,36.27
2023-05-15T21:14:01.932Z,37.90
2023-05-15T21:16:31.488Z,38.25
2023-05-15T21:19:01.374Z,37.17
2023-05-15T21:21:30.133Z,33.90
2023-05-15T21:24:02.162Z,36.30
2023-05-15T21:26:30.285Z,35.17
2023-05-15T21:28:59.205Z,35.53
2023-05-15T21:31:27.988Z,34.55
2023-05-15T21:33:57.911Z,37.23
2023-05-15T21:36:26.055Z,37.50
2023-05-15T21:38:54.204Z,36.33
2023-05-15T21:41:22.344Z,34.27
2023-05-15T21:43:50.451Z,34.67
2023-05-15T21:46:18.629Z,36.92
2023-05-15T21:48:46.802Z,38.50
2023-05-15T21:51:16.204Z,37.58
2023-05-15T21:53:44.338Z,36.65
2023-05-15T21:56:12.509Z,36.37
2023-05-15T21:58:40.621Z,36.67
2023-05-15T22:01:08.795Z,38.53
2023-05-15T22:03:36.925Z,37.40
2023-05-15T22:06:05.520Z,40.47
2023-05-15T22:08:35.137Z,37.70
2023-05-15T22:11:03.946Z,38.13
2023-05-15T22:13:32.088Z,39.27
2023-05-15T22:16:00.354Z,38.23
2023-05-15T22:18:29.125Z,37.95
2023-05-15T22:20:57.594Z,34.43
2023-05-15T22:23:26.287Z,38.07
2023-05-15T22:25:55.875Z,37.97
2023-05-15T22:28:24.188Z,34.10
2023-05-15T22:30:52.315Z,36.75
2023-05-15T22:33:24.587Z,36.00
2023-05-15T22:35:53.305Z,36.20
2023-05-15T22:38:21.480Z,38.50
2023-05-15T22:40:51.564Z,35.15
2023-05-15T22:43:21.573Z,37.20
2023-05-15T22:45:49.800Z,36.80
2023-05-15T22:48:17.974Z,37.53
2023-05-15T22:50:46.138Z,36.03
2023-05-15T22:53:14.306Z,38.25
2023-05-15T22:55:42.576Z,38.17
2023-05-15T22:58:10.731Z,38.90
2023-05-15T23:00:40.205Z,40.53
2023-05-15T23:03:08.495Z,39.10
2023-05-15T23:05:36.692Z,38.77
2023-05-15T23:08:04.930Z,39.65
2023-05-15T23:10:33.034Z,39.93
2023-05-15T23:13:01.143Z,39.97
2023-05-15T23:15:29.358Z,40.60
2023-05-15T23:17:58.828Z,39.70
2023-05-15T23:20:27.267Z,38.90
2023-05-15T23:22:56.109Z,41.00
2023-05-15T23:25:24.357Z,39.43
2023-05-15T23:27:53.114Z,40.67
2023-05-15T23:30:21.536Z,39.23
2023-05-15T23:32:50.410Z,39.10
2023-05-15T23:35:20.420Z,38.93
2023-05-15T23:37:48.477Z,38.20
2023-05-15T23:40:16.937Z,37.87
2023-05-15T23:42:45.039Z,38.27
2023-05-15T23:45:13.859Z,38.30
2023-05-15T23:47:42.510Z,39.33
2023-05-15T23:50:10.860Z,38.40
2023-05-15T23:52:40.419Z,39.23
2023-05-15T23:55:09.523Z,38.80
2023-05-15T23:57:37.686Z,38.23
